sensor_id;sensor_type;location;lat;lon;timestamp;pressure;altitude;pressure_sealevel;temperature
51693;BMP280;37777;53.066;21.638;2023-11-21T00:05:42;100053.97;;;-0.75
51693;BMP280;37777;53.066;21.638;2023-11-21T00:12:44;100064.06;;;-0.72
51693;BMP280;37777;53.066;21.638;2023-11-21T00:19:46;100070.69;;;-0.75
51693;BMP280;37777;53.066;21.638;2023-11-21T00:26:47;100077.59;;;-0.74
51693;BMP280;37777;53.066;21.638;2023-11-21T00:33:50;100069.38;;;-0.77
51693;BMP280;37777;53.066;21.638;2023-11-21T00:40:51;100084.81;;;-0.79
51693;BMP280;37777;53.066;21.638;2023-11-21T00:47:54;100084.81;;;-0.79
51693;BMP280;37777;53.066;21.638;2023-11-21T00:54:56;100087.47;;;-0.79
51693;BMP280;37777;53.066;21.638;2023-11-21T01:01:57;100084.25;;;-0.81
51693;BMP280;37777;53.066;21.638;2023-11-21T01:09:02;100073.63;;;-0.81
51693;BMP280;37777;53.066;21.638;2023-11-21T01:16:09;100067.81;;;-0.84
51693;BMP280;37777;53.066;21.638;2023-11-21T01:23:10;100081.59;;;-0.81
51693;BMP280;37777;53.066;21.638;2023-11-21T01:30:12;100089.84;;;-0.83
51693;BMP280;37777;53.066;21.638;2023-11-21T01:37:14;100091.19;;;-0.86
51693;BMP280;37777;53.066;21.638;2023-11-21T01:44:16;100087.47;;;-0.90
51693;BMP280;37777;53.066;21.638;2023-11-21T01:51:18;100097.03;;;-0.94
51693;BMP280;37777;53.066;21.638;2023-11-21T01:58:20;100109.25;;;-0.93
51693;BMP280;37777;53.066;21.638;2023-11-21T02:05:22;100102.88;;;-0.92
51693;BMP280;37777;53.066;21.638;2023-11-21T02:12:24;100102.34;;;-0.94
51693;BMP280;37777;53.066;21.638;2023-11-21T02:19:28;100110.03;;;-0.92
51693;BMP280;37777;53.066;21.638;2023-11-21T02:26:31;100125.47;;;-0.94
51693;BMP280;37777;53.066;21.638;2023-11-21T02:33:33;100123.31;;;-0.97
51693;BMP280;37777;53.066;21.638;2023-11-21T02:40:35;100122.28;;;-0.96
51693;BMP280;37777;53.066;21.638;2023-11-21T02:47:36;100132.63;;;-1.00
51693;BMP280;37777;53.066;21.638;2023-11-21T02:54:38;100143.78;;;-1.03
51693;BMP280;37777;53.066;21.638;2023-11-21T03:01:40;100147.22;;;-0.97
51693;BMP280;37777;53.066;21.638;2023-11-21T03:08:41;100162.38;;;-1.03
51693;BMP280;37777;53.066;21.638;2023-11-21T03:15:43;100147.50;;;-1.04
51693;BMP280;37777;53.066;21.638;2023-11-21T03:22:45;100165.56;;;-1.06
51693;BMP280;37777;53.066;21.638;2023-11-21T03:29:48;100161.03;;;-1.06
51693;BMP280;37777;53.066;21.638;2023-11-21T03:36:49;100163.44;;;-1.04
51693;BMP280;37777;53.066;21.638;2023-11-21T03:43:51;100172.47;;;-1.05
51693;BMP280;37777;53.066;21.638;2023-11-21T03:50:53;100177.78;;;-1.10
51693;BMP280;37777;53.066;21.638;2023-11-21T03:57:54;100167.41;;;-1.12
51693;BMP280;37777;53.066;21.638;2023-11-21T04:04:56;100168.22;;;-1.11
51693;BMP280;37777;53.066;21.638;2023-11-21T04:11:58;100170.06;;;-1.12
51693;BMP280;37777;53.066;21.638;2023-11-21T04:18:59;100180.44;;;-1.10
51693;BMP280;37777;53.066;21.638;2023-11-21T04:26:01;100180.44;;;-1.10
51693;BMP280;37777;53.066;21.638;2023-11-21T04:33:03;100196.38;;;-1.10
51693;BMP280;37777;53.066;21.638;2023-11-21T04:40:05;100196.38;;;-1.10
51693;BMP280;37777;53.066;21.638;2023-11-21T04:47:08;100192.63;;;-1.09
51693;BMP280;37777;53.066;21.638;2023-11-21T04:54:10;100209.63;;;-1.05
51693;BMP280;37777;53.066;21.638;2023-11-21T05:01:11;100224.00;;;-1.06
51693;BMP280;37777;53.066;21.638;2023-11-21T05:08:13;100222.69;;;-1.04
51693;BMP280;37777;53.066;21.638;2023-11-21T05:15:15;100227.16;;;-1.04
51693;BMP280;37777;53.066;21.638;2023-11-21T05:22:17;100242.84;;;-1.03
51693;BMP280;37777;53.066;21.638;2023-11-21T05:29:18;100235.97;;;-1.04
51693;BMP280;37777;53.066;21.638;2023-11-21T05:36:20;100242.59;;;-1.06
51693;BMP280;37777;53.066;21.638;2023-11-21T05:43:22;100251.06;;;-1.04
51693;BMP280;37777;53.066;21.638;2023-11-21T05:50:23;100256.91;;;-1.07
51693;BMP280;37777;53.066;21.638;2023-11-21T05:57:25;100276.28;;;-1.12
51693;BMP280;37777;53.066;21.638;2023-11-21T06:04:26;100281.06;;;-1.14
51693;BMP280;37777;53.066;21.638;2023-11-21T06:11:29;100292.47;;;-1.13
51693;BMP280;37777;53.066;21.638;2023-11-21T06:18:30;100303.09;;;-1.13
51693;BMP280;37777;53.066;21.638;2023-11-21T06:25:32;100310.00;;;-1.18
51693;BMP280;37777;53.066;21.638;2023-11-21T06:32:38;100306.56;;;-1.13
51693;BMP280;37777;53.066;21.638;2023-11-21T06:39:41;100326.75;;;-1.12
51693;BMP280;37777;53.066;21.638;2023-11-21T06:46:42;100322.25;;;-1.11
51693;BMP280;37777;53.066;21.638;2023-11-21T06:53:44;100328.06;;;-1.14
51693;BMP280;37777;53.066;21.638;2023-11-21T07:00:46;100338.44;;;-1.08
51693;BMP280;37777;53.066;21.638;2023-11-21T07:07:50;100340.31;;;-1.08
51693;BMP280;37777;53.066;21.638;2023-11-21T07:14:52;100345.09;;;-1.05
51693;BMP280;37777;53.066;21.638;2023-11-21T07:21:53;100360.53;;;-1.02
51693;BMP280;37777;53.066;21.638;2023-11-21T07:28:55;100366.66;;;-0.96
51693;BMP280;37777;53.066;21.638;2023-11-21T07:35:59;100362.69;;;-0.94
51693;BMP280;37777;53.066;21.638;2023-11-21T07:43:01;100369.31;;;-0.96
51693;BMP280;37777;53.066;21.638;2023-11-21T07:50:03;100366.13;;;-0.93
51693;BMP280;37777;53.066;21.638;2023-11-21T07:57:05;100366.13;;;-0.88
51693;BMP280;37777;53.066;21.638;2023-11-21T08:04:06;100370.69;;;-0.84
51693;BMP280;37777;53.066;21.638;2023-11-21T08:11:08;100380.25;;;-0.77
51693;BMP280;37777;53.066;21.638;2023-11-21T08:18:11;100380.25;;;-0.77
51693;BMP280;37777;53.066;21.638;2023-11-21T08:25:15;100391.44;;;-0.70
51693;BMP280;37777;53.066;21.638;2023-11-21T08:32:16;100385.34;;;-0.65
51693;BMP280;37777;53.066;21.638;2023-11-21T08:39:18;100410.09;;;-0.55
51693;BMP280;37777;53.066;21.638;2023-11-21T08:46:20;100406.91;;;-0.52
51693;BMP280;37777;53.066;21.638;2023-11-21T08:53:22;100412.75;;;-0.50
51693;BMP280;37777;53.066;21.638;2023-11-21T09:00:24;100404.78;;;-0.50
51693;BMP280;37777;53.066;21.638;2023-11-21T09:07:25;100410.38;;;-0.51
51693;BMP280;37777;53.066;21.638;2023-11-21T09:14:27;100418.34;;;-0.51
51693;BMP280;37777;53.066;21.638;2023-11-21T09:21:28;100427.38;;;-0.52
51693;BMP280;37777;53.066;21.638;2023-11-21T09:28:30;100426.06;;;-0.44
51693;BMP280;37777;53.066;21.638;2023-11-21T09:35:32;100443.59;;;-0.48
51693;BMP280;37777;53.066;21.638;2023-11-21T09:42:46;100440.94;;;-0.48
51693;BMP280;37777;53.066;21.638;2023-11-21T09:49:54;100439.63;;;-0.46
51693;BMP280;37777;53.066;21.638;2023-11-21T09:56:55;100444.91;;;-0.56
51693;BMP280;37777;53.066;21.638;2023-11-21T10:04:00;100448.91;;;-0.54
51693;BMP280;37777;53.066;21.638;2023-11-21T10:11:02;100455.03;;;-0.48
51693;BMP280;37777;53.066;21.638;2023-11-21T10:18:07;100453.97;;;-0.47
51693;BMP280;37777;53.066;21.638;2023-11-21T10:25:12;100458.53;;;-0.42
51693;BMP280;37777;53.066;21.638;2023-11-21T10:32:20;100459.56;;;-0.43
51693;BMP280;37777;53.066;21.638;2023-11-21T10:39:22;100460.66;;;-0.39
51693;BMP280;37777;53.066;21.638;2023-11-21T10:46:25;100468.38;;;-0.38
51693;BMP280;37777;53.066;21.638;2023-11-21T10:53:31;100459.03;;;-0.40
51693;BMP280;37777;53.066;21.638;2023-11-21T11:00:33;100456.13;;;-0.39
51693;BMP280;37777;53.066;21.638;2023-11-21T11:07:35;100465.41;;;-0.41
51693;BMP280;37777;53.066;21.638;2023-11-21T11:14:40;100468.88;;;-0.46
51693;BMP280;37777;53.066;21.638;2023-11-21T11:22:20;100465.97;;;-0.39
51693;BMP280;37777;53.066;21.638;2023-11-21T11:29:43;100472.59;;;-0.42
51693;BMP280;37777;53.066;21.638;2023-11-21T11:36:57;100480.84;;;-0.43
51693;BMP280;37777;53.066;21.638;2023-11-21T11:44:01;100480.84;;;-0.43
51693;BMP280;37777;53.066;21.638;2023-11-21T11:58:10;100487.78;;;-0.42
51693;BMP280;37777;53.066;21.638;2023-11-21T12:05:15;100488.28;;;-0.40
51693;BMP280;37777;53.066;21.638;2023-11-21T12:12:17;100490.44;;;-0.42
51693;BMP280;37777;53.066;21.638;2023-11-21T12:19:20;100490.44;;;-0.42
51693;BMP280;37777;53.066;21.638;2023-11-21T12:26:24;100502.88;;;-0.53
51693;BMP280;37777;53.066;21.638;2023-11-21T12:33:25;100509.75;;;-0.57
51693;BMP280;37777;53.066;21.638;2023-11-21T12:40:27;100514.00;;;-0.61
51693;BMP280;37777;53.066;21.638;2023-11-21T12:47:29;100522.25;;;-0.58
51693;BMP280;37777;53.066;21.638;2023-11-21T12:54:30;100523.84;;;-0.62
51693;BMP280;37777;53.066;21.638;2023-11-21T13:01:32;100524.88;;;-0.68
51693;BMP280;37777;53.066;21.638;2023-11-21T13:08:35;100536.03;;;-0.66
51693;BMP280;37777;53.066;21.638;2023-11-21T13:15:40;100543.19;;;-0.67
51693;BMP280;37777;53.066;21.638;2023-11-21T13:22:52;100556.75;;;-0.68
51693;BMP280;37777;53.066;21.638;2023-11-21T13:30:00;100574.03;;;-0.65
51693;BMP280;37777;53.066;21.638;2023-11-21T13:37:04;100583.84;;;-0.71
51693;BMP280;37777;53.066;21.638;2023-11-21T13:44:09;100589.69;;;-0.74
51693;BMP280;37777;53.066;21.638;2023-11-21T13:51:36;100601.91;;;-0.78
51693;BMP280;37777;53.066;21.638;2023-11-21T13:58:46;100611.13;;;-0.86
51693;BMP280;37777;53.066;21.638;2023-11-21T14:05:52;100630.56;;;-0.80
51693;BMP280;37777;53.066;21.638;2023-11-21T14:12:54;100628.16;;;-0.82
51693;BMP280;37777;53.066;21.638;2023-11-21T14:19:55;100648.91;;;-0.79
51693;BMP280;37777;53.066;21.638;2023-11-21T14:26:57;100663.81;;;-0.78
51693;BMP280;37777;53.066;21.638;2023-11-21T14:33:59;100676.31;;;-0.78
51693;BMP280;37777;53.066;21.638;2023-11-21T14:41:03;100673.88;;;-0.80
51693;BMP280;37777;53.066;21.638;2023-11-21T14:48:05;100683.13;;;-0.88
51693;BMP280;37777;53.066;21.638;2023-11-21T14:55:07;100689.75;;;-0.90
51693;BMP280;37777;53.066;21.638;2023-11-21T15:02:32;100701.16;;;-0.90
51693;BMP280;37777;53.066;21.638;2023-11-21T15:09:52;100713.66;;;-0.90
51693;BMP280;37777;53.066;21.638;2023-11-21T15:16:55;100717.00;;;-1.00
51693;BMP280;37777;53.066;21.638;2023-11-21T15:24:04;100718.31;;;-1.03
51693;BMP280;37777;53.066;21.638;2023-11-21T15:31:07;100737.47;;;-1.01
51693;BMP280;37777;53.066;21.638;2023-11-21T15:38:09;100743.00;;;-1.07
51693;BMP280;37777;53.066;21.638;2023-11-21T15:45:11;100754.66;;;-1.08
51693;BMP280;37777;53.066;21.638;2023-11-21T15:52:13;100760.22;;;-1.10
51693;BMP280;37777;53.066;21.638;2023-11-21T15:59:15;100773.97;;;-1.18
51693;BMP280;37777;53.066;21.638;2023-11-21T16:06:17;100777.41;;;-1.18
51693;BMP280;37777;53.066;21.638;2023-11-21T16:13:19;100793.34;;;-1.18
51693;BMP280;37777;53.066;21.638;2023-11-21T16:20:21;100785.81;;;-1.26
51693;BMP280;37777;53.066;21.638;2023-11-21T16:27:22;100801.75;;;-1.26
51693;BMP280;37777;53.066;21.638;2023-11-21T16:34:24;100801.50;;;-1.24
51693;BMP280;37777;53.066;21.638;2023-11-21T16:41:26;100817.44;;;-1.24
51693;BMP280;37777;53.066;21.638;2023-11-21T16:48:28;100823.50;;;-1.29
51693;BMP280;37777;53.066;21.638;2023-11-21T16:55:29;100833.13;;;-1.23
51693;BMP280;37777;53.066;21.638;2023-11-21T17:02:31;100836.28;;;-1.26
51693;BMP280;37777;53.066;21.638;2023-11-21T17:09:33;100842.56;;;-1.32
51693;BMP280;37777;53.066;21.638;2023-11-21T17:16:35;100848.69;;;-1.31
51693;BMP280;37777;53.066;21.638;2023-11-21T17:23:36;100849.47;;;-1.31
51693;BMP280;37777;53.066;21.638;2023-11-21T17:30:38;100851.88;;;-1.29
51693;BMP280;37777;53.066;21.638;2023-11-21T17:37:40;100864.38;;;-1.30
51693;BMP280;37777;53.066;21.638;2023-11-21T17:44:42;100872.09;;;-1.28
51693;BMP280;37777;53.066;21.638;2023-11-21T17:51:44;100879.25;;;-1.29
51693;BMP280;37777;53.066;21.638;2023-11-21T17:58:45;100888.03;;;-1.28
51693;BMP280;37777;53.066;21.638;2023-11-21T18:05:47;100902.09;;;-1.28
51693;BMP280;37777;53.066;21.638;2023-11-21T18:12:49;100918.28;;;-1.29
51693;BMP280;37777;53.066;21.638;2023-11-21T18:19:50;100923.50;;;-1.35
51693;BMP280;37777;53.066;21.638;2023-11-21T18:26:56;100935.38;;;-1.37
51693;BMP280;37777;53.066;21.638;2023-11-21T18:33:57;100936.69;;;-1.40
51693;BMP280;37777;53.066;21.638;2023-11-21T18:40:59;100937.66;;;-1.46
51693;BMP280;37777;53.066;21.638;2023-11-21T18:48:01;100949.31;;;-1.47
51693;BMP280;37777;53.066;21.638;2023-11-21T18:55:02;100952.41;;;-1.55
51693;BMP280;37777;53.066;21.638;2023-11-21T19:02:04;100954.22;;;-1.56
51693;BMP280;37777;53.066;21.638;2023-11-21T19:09:14;100970.81;;;-1.48
51693;BMP280;37777;53.066;21.638;2023-11-21T19:16:16;100973.38;;;-1.54
51693;BMP280;37777;53.066;21.638;2023-11-21T19:23:17;100987.84;;;-1.61
51693;BMP280;37777;53.066;21.638;2023-11-21T19:30:19;101000.50;;;-1.69
51693;BMP280;37777;53.066;21.638;2023-11-21T19:37:21;101008.22;;;-1.67
51693;BMP280;37777;53.066;21.638;2023-11-21T19:44:25;101017.94;;;-1.73
51693;BMP280;37777;53.066;21.638;2023-11-21T19:51:27;101036.19;;;-1.76
51693;BMP280;37777;53.066;21.638;2023-11-21T19:58:28;101042.19;;;-1.81
51693;BMP280;37777;53.066;21.638;2023-11-21T20:05:30;101052.00;;;-1.81
51693;BMP280;37777;53.066;21.638;2023-11-21T20:12:34;101059.06;;;-1.87
51693;BMP280;37777;53.066;21.638;2023-11-21T20:19:35;101059.63;;;-1.97
51693;BMP280;37777;53.066;21.638;2023-11-21T20:26:37;101069.09;;;-1.89
51693;BMP280;37777;53.066;21.638;2023-11-21T20:33:42;101083.19;;;-2.01
51693;BMP280;37777;53.066;21.638;2023-11-21T20:40:44;101091.06;;;-2.06
51693;BMP280;37777;53.066;21.638;2023-11-21T20:47:46;101102.91;;;-1.96
51693;BMP280;37777;53.066;21.638;2023-11-21T20:54:47;101114.78;;;-1.99
51693;BMP280;37777;53.066;21.638;2023-11-21T21:01:49;101107.06;;;-2.01
51693;BMP280;37777;53.066;21.638;2023-11-21T21:08:51;101134.41;;;-2.00
51693;BMP280;37777;53.066;21.638;2023-11-21T21:15:54;101130.59;;;-2.04
51693;BMP280;37777;53.066;21.638;2023-11-21T21:22:56;101141.31;;;-1.99
51693;BMP280;37777;53.066;21.638;2023-11-21T21:29:58;101157.81;;;-2.09
51693;BMP280;37777;53.066;21.638;2023-11-21T21:36:59;101167.41;;;-2.20
51693;BMP280;37777;53.066;21.638;2023-11-21T21:44:01;101177.91;;;-2.25
51693;BMP280;37777;53.066;21.638;2023-11-21T21:51:03;101182.06;;;-2.29
51693;BMP280;37777;53.066;21.638;2023-11-21T21:58:05;101201.75;;;-2.37
51693;BMP280;37777;53.066;21.638;2023-11-21T22:05:11;101207.06;;;-2.37
51693;BMP280;37777;53.066;21.638;2023-11-21T22:12:13;101224.56;;;-2.47
51693;BMP280;37777;53.066;21.638;2023-11-21T22:19:15;101227.09;;;-2.64
51693;BMP280;37777;53.066;21.638;2023-11-21T22:26:17;101240.53;;;-2.66
51693;BMP280;37777;53.066;21.638;2023-11-21T22:33:18;101242.09;;;-2.77
51693;BMP280;37777;53.066;21.638;2023-11-21T22:40:21;101238.38;;;-2.88
51693;BMP280;37777;53.066;21.638;2023-11-21T22:47:23;101253.06;;;-3.04
51693;BMP280;37777;53.066;21.638;2023-11-21T22:54:26;101245.06;;;-3.16
51693;BMP280;37777;53.066;21.638;2023-11-21T23:01:28;101251.13;;;-3.27
51693;BMP280;37777;53.066;21.638;2023-11-21T23:08:30;101244.13;;;-3.40
51693;BMP280;37777;53.066;21.638;2023-11-21T23:15:34;101250.28;;;-3.46
51693;BMP280;37777;53.066;21.638;2023-11-21T23:22:39;101268.25;;;-3.48
51693;BMP280;37777;53.066;21.638;2023-11-21T23:29:41;101272.25;;;-3.64
51693;BMP280;37777;53.066;21.638;2023-11-21T23:45:07;101294.44;;;-3.65
51693;BMP280;37777;53.066;21.638;2023-11-21T23:52:10;101290.91;;;-3.77
51693;BMP280;37777;53.066;21.638;2023-11-21T23:59:11;101285.84;;;-3.79
